Time;durP1;ratioP1;P1;durP2;ratioP2;P2;SDS_P1;SDS_P2;PMS_P1;PMS_P2;Temp;Humidity;BMP_temperature;BMP_pressure;BME280_temperature;BME280_humidity;BME280_pressure;Samples;Min_cycle;Max_cycle;Signal;HPM_P1;HPM_P2
2022/05/18 00:00:38;;;;;;;5.37;3.00;;;18.90;76.00;;;;;;7363903;19;20916;-51
2022/05/18 00:03:12;;;;;;;6.07;2.80;;;18.80;76.40;;;;;;7369636;19;20379;-51
2022/05/18 00:05:43;;;;;;;2.80;2.53;;;18.60;77.10;;;;;;7376287;19;20375;-51
2022/05/18 00:08:14;;;;;;;2.83;2.60;;;18.30;76.90;;;;;;7361545;19;20385;-51
2022/05/18 00:10:46;;;;;;;2.77;2.20;;;18.70;77.20;;;;;;7377676;19;20451;-51
2022/05/18 00:13:18;;;;;;;3.33;2.47;;;18.80;77.10;;;;;;7373477;19;20404;-52
2022/05/18 00:15:50;;;;;;;2.90;2.50;;;18.70;77.30;;;;;;7370134;19;20387;-51
2022/05/18 00:18:25;;;;;;;4.07;2.80;;;18.80;77.50;;;;;;7367664;19;20381;-51
2022/05/18 00:20:56;;;;;;;5.40;3.50;;;18.50;78.60;;;;;;7369559;19;20376;-50
2022/05/18 00:23:28;;;;;;;3.57;3.10;;;18.40;79.60;;;;;;7370163;19;20378;-51
2022/05/18 00:26:00;;;;;;;2.70;2.50;;;18.30;80.40;;;;;;7372111;19;20920;-51
2022/05/18 00:28:33;;;;;;;3.23;2.63;;;18.20;80.90;;;;;;7373708;19;20472;-51
2022/05/18 00:31:07;;;;;;;4.40;2.50;;;18.10;81.20;;;;;;7363807;19;20368;-51
2022/05/18 00:33:44;;;;;;;3.13;2.50;;;18.10;81.80;;;;;;7374796;19;21013;-51
2022/05/18 00:36:14;;;;;;;4.87;2.87;;;18.00;82.00;;;;;;7376489;19;20391;-51
2022/05/18 00:38:45;;;;;;;6.80;2.93;;;18.10;82.30;;;;;;7368617;19;20941;-51
2022/05/18 00:41:19;;;;;;;4.10;3.20;;;18.20;81.70;;;;;;7375108;19;20376;-51
2022/05/18 00:43:52;;;;;;;4.07;2.90;;;18.20;81.50;;;;;;7374955;19;20360;-51
2022/05/18 00:46:22;;;;;;;3.90;2.73;;;18.30;81.20;;;;;;7374437;19;20784;-51
2022/05/18 00:48:56;;;;;;;5.33;3.20;;;18.30;81.20;;;;;;7356659;19;20444;-52
2022/05/18 00:51:32;;;;;;;3.33;2.60;;;18.50;80.60;;;;;;7375027;19;20379;-49
2022/05/18 00:54:07;;;;;;;2.87;2.30;;;18.60;80.30;;;;;;7368253;19;20451;-50
2022/05/18 00:56:44;;;;;;;3.60;3.00;;;18.60;80.00;;;;;;7371035;19;20395;-50
2022/05/18 00:59:19;;;;;;;4.30;3.23;;;18.60;80.40;;;;;;7364738;19;20466;-50
2022/05/18 01:01:51;;;;;;;3.10;2.80;;;18.60;79.90;;;;;;7370878;19;20371;-50
2022/05/18 01:04:27;;;;;;;4.03;2.93;;;18.50;80.80;;;;;;7371399;19;20687;-49
2022/05/18 01:07:05;;;;;;;3.43;3.13;;;18.30;80.80;;;;;;7367310;19;20384;-49
2022/05/18 01:09:38;;;;;;;3.70;2.70;;;18.20;81.80;;;;;;7368199;19;20379;-50
2022/05/18 01:12:13;;;;;;;3.63;3.20;;;18.20;82.40;;;;;;7371595;19;20388;-49
2022/05/18 01:14:47;;;;;;;5.37;3.20;;;18.20;82.50;;;;;;7367112;19;20368;-50
2022/05/18 01:17:24;;;;;;;4.60;3.13;;;18.20;82.80;;;;;;7368471;19;20397;-50
2022/05/18 01:20:02;;;;;;;6.83;4.23;;;18.00;83.10;;;;;;7372270;19;20456;-50
2022/05/18 01:22:39;;;;;;;5.30;3.20;;;18.10;83.40;;;;;;7371055;19;20826;-51
2022/05/18 01:25:23;;;;;;;3.53;3.07;;;18.10;82.80;;;;;;7371569;19;20963;-50
2022/05/18 01:27:56;;;;;;;6.13;3.63;;;17.70;83.30;;;;;;7372817;19;20369;-50
2022/05/18 01:30:28;;;;;;;3.13;2.83;;;17.90;84.20;;;;;;7364965;19;20445;-50
2022/05/18 01:33:00;;;;;;;5.07;3.27;;;18.00;83.60;;;;;;7371754;19;20455;-50
2022/05/18 01:35:33;;;;;;;3.87;3.07;;;18.10;83.10;;;;;;7370535;19;20376;-50
2022/05/18 01:38:03;;;;;;;3.40;3.10;;;18.20;82.60;;;;;;7363559;19;20368;-50
2022/05/18 01:40:37;;;;;;;3.03;2.83;;;18.40;81.90;;;;;;7373766;19;20364;-50
2022/05/18 01:43:17;;;;;;;4.50;3.50;;;18.30;81.70;;;;;;7369796;19;20382;-50
2022/05/18 01:45:50;;;;;;;4.43;3.77;;;18.20;82.70;;;;;;7363769;19;20457;-50
2022/05/18 01:48:26;;;;;;;4.23;3.60;;;18.10;84.80;;;;;;7369101;19;20443;-50
2022/05/18 01:51:01;;;;;;;4.20;3.00;;;18.10;83.70;;;;;;7351623;19;20400;-51
2022/05/18 01:53:35;;;;;;;3.77;3.00;;;18.10;84.10;;;;;;7370891;19;20433;-52
2022/05/18 01:56:08;;;;;;;3.60;3.30;;;18.00;84.70;;;;;;7370410;19;20384;-52
2022/05/18 01:58:40;;;;;;;4.53;3.27;;;17.90;85.60;;;;;;7371929;19;20368;-51
2022/05/18 02:01:12;;;;;;;3.20;2.90;;;18.00;84.90;;;;;;7364521;19;20457;-51
2022/05/18 02:03:42;;;;;;;5.43;3.70;;;17.90;85.10;;;;;;7370747;19;20973;-51
2022/05/18 02:06:11;;;;;;;4.40;3.43;;;18.00;85.00;;;;;;7366647;19;20988;-51
2022/05/18 02:08:42;;;;;;;3.73;3.20;;;18.00;85.40;;;;;;7368510;19;20917;-53
2022/05/18 02:11:15;;;;;;;4.93;3.03;;;17.80;86.00;;;;;;7370387;19;20380;-51
2022/05/18 02:13:47;;;;;;;4.40;3.70;;;17.70;86.10;;;;;;7369536;19;20415;-52
2022/05/18 02:16:17;;;;;;;5.40;4.20;;;17.60;87.10;;;;;;7366813;19;20376;-51
2022/05/18 02:18:49;;;;;;;4.67;3.40;;;17.60;87.10;;;;;;7370859;19;20368;-51
2022/05/18 02:21:19;;;;;;;5.57;3.60;;;17.50;87.20;;;;;;7374123;19;20753;-50
2022/05/18 02:23:49;;;;;;;5.87;3.33;;;17.50;87.00;;;;;;7373643;19;20767;-50
2022/05/18 02:26:22;;;;;;;6.90;3.50;;;17.50;87.70;;;;;;7383725;19;20447;-50
2022/05/18 02:28:54;;;;;;;5.07;3.60;;;17.40;87.60;;;;;;7377665;19;20372;-50
2022/05/18 02:31:26;;;;;;;5.37;3.60;;;17.50;87.00;;;;;;7381006;19;20383;-50
2022/05/18 02:33:56;;;;;;;3.80;3.47;;;17.70;87.10;;;;;;7376540;19;20758;-50
2022/05/18 02:36:26;;;;;;;8.30;4.40;;;17.60;87.10;;;;;;7382992;19;20376;-50
2022/05/18 02:38:55;;;;;;;6.00;3.10;;;17.60;86.60;;;;;;7372601;19;20400;-50
2022/05/18 02:41:25;;;;;;;3.97;3.23;;;17.20;85.00;;;;;;7379083;19;20397;-51
2022/05/18 02:43:57;;;;;;;6.73;3.90;;;17.80;85.90;;;;;;7371800;19;20375;-51
2022/05/18 02:46:27;;;;;;;5.23;3.57;;;17.80;85.90;;;;;;7377570;19;20384;-52
2022/05/18 02:48:58;;;;;;;4.50;3.50;;;17.90;85.80;;;;;;7369071;19;20805;-52
2022/05/18 02:51:30;;;;;;;4.53;4.13;;;17.60;87.20;;;;;;7374700;19;20379;-52
2022/05/18 02:54:01;;;;;;;4.30;3.70;;;17.50;87.80;;;;;;7368634;19;20409;-52
2022/05/18 02:56:30;;;;;;;4.70;4.20;;;17.60;88.20;;;;;;7380097;19;20372;-52
2022/05/18 02:59:05;;;;;;;4.27;3.87;;;17.60;87.70;;;;;;7378202;19;20385;-52
2022/05/18 03:01:39;;;;;;;4.43;4.03;;;17.60;87.60;;;;;;7378238;19;20395;-52
2022/05/18 03:04:09;;;;;;;6.63;4.40;;;17.40;87.80;;;;;;7375514;19;20412;-52
2022/05/18 03:06:38;;;;;;;5.00;3.70;;;17.40;88.20;;;;;;7379604;19;20368;-52
2022/05/18 03:09:10;;;;;;;4.60;3.37;;;17.30;88.90;;;;;;7370816;19;20365;-52
2022/05/18 03:11:40;;;;;;;5.70;3.77;;;17.20;89.80;;;;;;7376392;19;20371;-52
2022/05/18 03:14:13;;;;;;;3.60;3.30;;;17.00;90.30;;;;;;7372013;19;22342;-52
2022/05/18 03:16:45;;;;;;;4.23;3.40;;;17.00;90.30;;;;;;7377180;19;20383;-52
2022/05/18 03:19:18;;;;;;;6.03;3.83;;;17.10;90.20;;;;;;7373371;19;20372;-52
2022/05/18 03:24:32;;;;;;;4.40;3.53;;;17.00;90.80;;;;;;7374397;19;20792;-52
2022/05/18 03:27:04;;;;;;;4.30;3.90;;;17.10;90.60;;;;;;7379135;19;20918;-53
2022/05/18 03:29:41;;;;;;;4.10;3.73;;;16.90;90.70;;;;;;7373084;19;20380;-51
2022/05/18 03:32:12;;;;;;;4.37;3.97;;;17.00;90.90;;;;;;7362537;19;20397;-50
2022/05/18 03:34:44;;;;;;;6.63;4.40;;;16.90;90.90;;;;;;7344488;19;20368;-51
2022/05/18 03:37:13;;;;;;;4.23;3.83;;;16.90;90.80;;;;;;7374896;19;20372;-51
2022/05/18 03:39:43;;;;;;;8.83;4.20;;;16.80;91.10;;;;;;7372711;19;20392;-50
2022/05/18 03:42:15;;;;;;;4.50;3.80;;;16.90;91.10;;;;;;7376232;19;20380;-49
2022/05/18 03:44:52;;;;;;;5.37;4.13;;;17.20;90.60;;;;;;7372124;19;21869;-51
2022/05/18 03:47:21;;;;;;;6.10;4.17;;;17.20;90.10;;;;;;7373401;19;20956;-50
2022/05/18 03:49:53;;;;;;;11.53;4.50;;;17.20;90.20;;;;;;7366286;19;20458;-51
2022/05/18 03:52:25;;;;;;;4.70;3.43;;;17.40;89.80;;;;;;7374560;19;20459;-50
2022/05/18 03:55:00;;;;;;;4.83;3.50;;;17.60;88.80;;;;;;7367051;19;20371;-51
2022/05/18 03:57:32;;;;;;;5.00;3.60;;;17.60;88.20;;;;;;7376019;19;20373;-50
2022/05/18 04:00:08;;;;;;;6.17;3.80;;;17.60;88.80;;;;;;7375726;19;20387;-48
2022/05/18 04:02:40;;;;;;;6.43;4.00;;;17.70;87.30;;;;;;7372795;19;20462;-49
2022/05/18 04:05:11;;;;;;;4.80;3.03;;;17.80;86.90;;;;;;7378812;19;20372;-51
2022/05/18 04:07:42;;;;;;;5.60;4.03;;;17.60;87.60;;;;;;7372666;19;20380;-49
2022/05/18 04:10:14;;;;;;;4.83;3.77;;;17.60;88.10;;;;;;7371596;19;20372;-51
2022/05/18 04:12:46;;;;;;;5.83;4.60;;;17.70;87.20;;;;;;7374538;19;20399;-51
2022/05/18 04:15:19;;;;;;;4.20;3.80;;;17.80;86.60;;;;;;7369175;19;20409;-51
2022/05/18 04:17:50;;;;;;;4.00;3.60;;;17.80;86.00;;;;;;7373334;19;20368;-51
2022/05/18 04:20:24;;;;;;;3.80;3.43;;;17.80;85.70;;;;;;7372584;19;20388;-51
2022/05/18 04:22:56;;;;;;;3.47;3.17;;;17.90;85.80;;;;;;7378128;19;20561;-51
2022/05/18 04:25:29;;;;;;;5.57;4.00;;;17.90;86.00;;;;;;7373264;19;20710;-52
2022/05/18 04:28:03;;;;;;;5.63;3.83;;;17.80;86.40;;;;;;7376464;19;20374;-51
2022/05/18 04:30:38;;;;;;;8.40;4.73;;;17.70;87.70;;;;;;7370732;19;20399;-53
2022/05/18 04:33:10;;;;;;;7.10;4.80;;;17.40;89.10;;;;;;7372806;19;20390;-52
2022/05/18 04:35:40;;;;;;;4.57;4.17;;;17.20;90.10;;;;;;7370290;19;21295;-54
2022/05/18 04:38:10;;;;;;;4.77;4.27;;;17.10;90.30;;;;;;7370783;19;20383;-53
2022/05/18 04:40:40;;;;;;;6.53;4.70;;;17.10;90.60;;;;;;7373188;19;21000;-53
2022/05/18 04:43:11;;;;;;;8.27;4.63;;;17.10;91.20;;;;;;7370430;19;20387;-53
2022/05/18 04:45:45;;;;;;;4.83;4.13;;;17.10;91.50;;;;;;7371199;19;20383;-51
2022/05/18 04:48:17;;;;;;;6.37;4.40;;;17.20;91.30;;;;;;7360732;19;20396;-52
2022/05/18 04:50:50;;;;;;;4.93;3.80;;;17.40;90.90;;;;;;7374687;19;21066;-53
2022/05/18 04:53:22;;;;;;;6.80;4.60;;;17.00;91.50;;;;;;7369617;19;20412;-53
2022/05/18 04:55:54;;;;;;;4.67;3.70;;;17.00;92.10;;;;;;7374700;19;20376;-52
2022/05/18 04:58:23;;;;;;;6.27;4.00;;;17.10;91.80;;;;;;7371498;19;20391;-53
2022/05/18 05:01:00;;;;;;;8.53;5.00;;;17.20;91.90;;;;;;7372659;19;21366;-50
2022/05/18 05:03:32;;;;;;;5.70;3.10;;;17.30;91.30;;;;;;7355848;19;20386;-50
2022/05/18 05:06:01;;;;;;;4.17;3.50;;;17.20;91.70;;;;;;7366279;19;20376;-50
2022/05/18 05:08:34;;;;;;;5.93;3.63;;;17.20;92.00;;;;;;7366025;19;20443;-50
2022/05/18 05:11:07;;;;;;;4.33;3.80;;;17.30;92.00;;;;;;7375591;19;20471;-50
2022/05/18 05:13:38;;;;;;;5.10;3.90;;;17.50;91.50;;;;;;7367458;19;20405;-50
2022/05/18 05:16:12;;;;;;;7.03;4.00;;;17.50;91.20;;;;;;7366632;19;21709;-50
2022/05/18 05:18:42;;;;;;;5.30;4.00;;;17.70;91.20;;;;;;7358252;19;20903;-52
2022/05/18 05:21:11;;;;;;;6.00;4.20;;;17.70;91.00;;;;;;7374567;19;20471;-51
2022/05/18 05:23:43;;;;;;;4.90;3.73;;;17.70;90.70;;;;;;7361408;19;20433;-50
2022/05/18 05:26:16;;;;;;;6.23;4.13;;;18.00;90.50;;;;;;7367631;19;20414;-50
2022/05/18 05:28:48;;;;;;;5.97;4.03;;;18.10;89.90;;;;;;7367372;19;20376;-47
2022/05/18 05:31:22;;;;;;;3.93;3.53;;;18.30;88.70;;;;;;7365952;19;20419;-48
2022/05/18 05:33:55;;;;;;;4.37;3.60;;;18.50;88.20;;;;;;7368451;19;20363;-48
2022/05/18 05:36:27;;;;;;;6.83;3.73;;;18.60;87.20;;;;;;7372645;19;20387;-50
2022/05/18 05:38:59;;;;;;;8.30;4.10;;;18.80;86.50;;;;;;7368674;19;20833;-50
2022/05/18 05:41:29;;;;;;;6.60;4.10;;;18.80;85.60;;;;;;7372150;19;20376;-52
2022/05/18 05:43:59;;;;;;;4.37;3.50;;;18.80;85.80;;;;;;7367901;19;20380;-52
2022/05/18 05:46:32;;;;;;;7.63;4.00;;;19.00;85.20;;;;;;7364965;19;20404;-51
2022/05/18 05:49:06;;;;;;;7.90;4.50;;;18.90;84.00;;;;;;7356807;19;20443;-50
2022/05/18 05:51:35;;;;;;;5.77;4.10;;;19.00;84.60;;;;;;7364920;19;20384;-51
2022/05/18 05:54:05;;;;;;;5.67;4.60;;;19.10;84.30;;;;;;7363847;19;20464;-51
2022/05/18 05:56:34;;;;;;;8.43;6.13;;;19.30;83.20;;;;;;7365087;19;20464;-51
2022/05/18 05:59:09;;;;;;;5.40;4.38;;;19.40;82.60;;;;;;7369514;19;20390;-51
2022/05/18 06:01:41;;;;;;;8.50;5.00;;;19.80;81.30;;;;;;7377064;19;20446;-53
2022/05/18 06:04:10;;;;;;;12.43;5.03;;;20.20;80.30;;;;;;7373629;19;20385;-55
2022/05/18 06:06:45;;;;;;;8.90;5.47;;;20.10;80.50;;;;;;7375476;19;20371;-53
2022/05/18 06:09:14;;;;;;;9.00;5.30;;;20.10;81.10;;;;;;7373508;19;20395;-54
2022/05/18 06:11:46;;;;;;;6.57;4.47;;;20.10;81.30;;;;;;7371252;19;20400;-53
2022/05/18 06:14:18;;;;;;;5.50;5.00;;;20.30;81.40;;;;;;7379336;19;20900;-52
2022/05/18 06:16:51;;;;;;;9.70;5.27;;;20.50;80.50;;;;;;7370918;19;20384;-56
2022/05/18 06:19:26;;;;;;;8.93;4.97;;;20.50;79.90;;;;;;7374657;19;20466;-55
2022/05/18 06:21:55;;;;;;;6.67;4.73;;;20.70;79.90;;;;;;7377505;19;20399;-55
2022/05/18 06:24:25;;;;;;;8.40;4.80;;;20.80;78.30;;;;;;7360324;19;20376;-55
2022/05/18 06:26:57;;;;;;;6.20;4.23;;;20.90;78.50;;;;;;7370935;19;20379;-56
2022/05/18 06:29:31;;;;;;;6.37;4.73;;;21.10;77.40;;;;;;7369881;19;20392;-51
2022/05/18 06:32:04;;;;;;;6.07;4.70;;;21.20;76.80;;;;;;7371451;19;20375;-50
2022/05/18 06:34:33;;;;;;;10.00;5.27;;;21.40;75.90;;;;;;7371054;19;20370;-50
2022/05/18 06:37:05;;;;;;;6.20;4.63;;;21.50;74.90;;;;;;7368372;19;20397;-50
2022/05/18 06:39:35;;;;;;;4.53;4.03;;;21.60;74.60;;;;;;7369877;19;20812;-51
2022/05/18 06:42:07;;;;;;;5.27;4.00;;;21.70;73.30;;;;;;7372144;19;20376;-51
2022/05/18 06:44:45;;;;;;;5.30;3.73;;;21.80;71.80;;;;;;7376691;19;20388;-50
2022/05/18 06:47:20;;;;;;;4.60;3.73;;;22.00;70.40;;;;;;7370414;19;20373;-52
2022/05/18 06:49:49;;;;;;;7.40;4.80;;;22.20;71.10;;;;;;7361498;19;20465;-52
2022/05/18 06:52:19;;;;;;;7.10;3.73;;;22.20;70.50;;;;;;7376508;19;20401;-52
2022/05/18 06:54:49;;;;;;;9.40;4.20;;;22.30;70.40;;;;;;7365335;19;20380;-52
2022/05/18 06:57:19;;;;;;;8.63;4.23;;;22.50;68.30;;;;;;7364494;19;20376;-52
2022/05/18 06:59:49;;;;;;;5.53;3.73;;;22.60;68.50;;;;;;7355355;19;20391;-50
2022/05/18 07:02:22;;;;;;;6.60;3.80;;;22.70;66.60;;;;;;7362190;19;20424;-51
2022/05/18 07:04:54;;;;;;;7.33;5.00;;;22.90;66.40;;;;;;7381422;19;20423;-51
2022/05/18 07:07:24;;;;;;;8.47;4.87;;;23.00;65.80;;;;;;7366722;19;20377;-51
2022/05/18 07:09:54;;;;;;;5.57;4.10;;;23.20;64.50;;;;;;7367664;19;20380;-51
2022/05/18 07:12:26;;;;;;;4.63;3.80;;;23.30;63.10;;;;;;7372538;19;20380;-50
2022/05/18 07:14:58;;;;;;;4.47;3.33;;;23.40;63.60;;;;;;7363666;19;20383;-50
2022/05/18 07:17:30;;;;;;;5.93;3.20;;;23.40;60.10;;;;;;7365027;19;20379;-50
2022/05/18 07:20:02;;;;;;;3.47;3.17;;;23.50;58.40;;;;;;7368686;19;20370;-53
2022/05/18 07:22:34;;;;;;;2.53;2.33;;;23.60;57.10;;;;;;7366933;19;20413;-53
2022/05/18 07:25:07;;;;;;;5.23;2.80;;;23.60;56.80;;;;;;7376966;19;20452;-52
2022/05/18 07:27:36;;;;;;;3.43;2.67;;;23.70;56.50;;;;;;7372582;19;20843;-53
2022/05/18 07:30:07;;;;;;;5.60;3.20;;;23.70;55.50;;;;;;7377326;19;20372;-57
2022/05/18 07:32:42;;;;;;;2.60;2.40;;;23.60;55.50;;;;;;7374808;19;21709;-57
2022/05/18 07:35:12;;;;;;;3.10;2.57;;;23.70;56.00;;;;;;7374868;19;20379;-57
2022/05/18 07:37:42;;;;;;;5.20;3.23;;;;;;;;;;7370579;19;20755;-54
2022/05/18 07:40:14;;;;;;;4.67;2.93;;;24.10;55.90;;;;;;7366962;19;21748;-54
2022/05/18 07:42:46;;;;;;;3.27;2.97;;;24.20;56.00;;;;;;7370747;19;20784;-51
2022/05/18 07:45:17;;;;;;;4.20;2.50;;;24.30;55.10;;;;;;7360859;19;20392;-50
2022/05/18 07:47:51;;;;;;;3.60;2.83;;;24.40;55.50;;;;;;7378783;19;20748;-53
2022/05/18 07:50:22;;;;;;;3.63;3.23;;;24.50;54.00;;;;;;7371169;19;20383;-53
2022/05/18 07:52:57;;;;;;;4.20;2.90;;;24.50;53.40;;;;;;7372033;19;20383;-51
2022/05/18 07:55:31;;;;;;;5.90;3.10;;;24.50;53.80;;;;;;7378258;19;20399;-52
2022/05/18 07:58:00;;;;;;;5.50;2.67;;;24.70;52.10;;;;;;7373443;19;20375;-52
2022/05/18 08:00:32;;;;;;;3.30;2.57;;;24.60;51.80;;;;;;7381356;19;20456;-56
2022/05/18 08:03:07;;;;;;;6.50;2.90;;;24.60;51.80;;;;;;7371755;19;21056;-56
2022/05/18 08:05:37;;;;;;;4.43;2.83;;;24.70;52.10;;;;;;7374215;19;20368;-56
2022/05/18 08:08:09;;;;;;;3.50;2.87;;;24.90;52.70;;;;;;7336630;19;20420;-55
2022/05/18 08:16:06;;;;;;;12.47;3.97;;;25.10;52.00;;;;;;7369923;19;20914;-52
2022/05/18 08:18:39;;;;;;;7.83;2.90;;;25.40;51.60;;;;;;7361857;19;21977;-52
2022/05/18 08:21:09;;;;;;;5.20;3.30;;;25.50;50.50;;;;;;7368945;19;20423;-52
2022/05/18 08:23:41;;;;;;;3.50;3.20;;;25.50;50.30;;;;;;7366570;19;20380;-53
2022/05/18 08:26:11;;;;;;;5.77;2.80;;;25.50;50.70;;;;;;7370324;19;20419;-53
2022/05/18 08:28:42;;;;;;;3.87;2.90;;;25.70;50.70;;;;;;7362233;19;20387;-52
2022/05/18 08:31:17;;;;;;;3.47;3.07;;;26.00;50.30;;;;;;7371047;19;20897;-52
2022/05/18 08:33:52;;;;;;;6.83;2.60;;;26.30;48.70;;;;;;7371684;19;20372;-52
2022/05/18 08:36:26;;;;;;;7.37;3.17;;;26.40;48.00;;;;;;7366982;19;20391;-53
2022/05/18 08:38:56;;;;;;;3.03;2.70;;;26.40;47.80;;;;;;7373772;19;20412;-53
2022/05/18 08:41:33;;;;;;;3.93;2.80;;;26.40;47.00;;;;;;7375023;19;21094;-53
2022/05/18 08:44:05;;;;;;;4.00;2.97;;;26.50;47.60;;;;;;7372932;19;20875;-53
2022/05/18 08:46:46;;;;;;;3.80;2.90;;;26.50;46.60;;;;;;7363185;19;20371;-54
2022/05/18 08:49:33;;;;;;;4.90;2.80;;;26.50;46.20;;;;;;7361905;19;20531;-53
2022/05/18 08:52:21;;;;;;;5.80;3.57;;;26.50;46.60;;;;;;7374338;19;20384;-53
2022/05/18 08:54:59;;;;;;;5.10;3.10;;;27.30;47.10;;;;;;7371723;19;20376;-53
2022/05/18 08:57:38;;;;;;;5.53;3.10;;;26.90;45.70;;;;;;7372777;19;20414;-53
2022/05/18 09:00:18;;;;;;;3.10;2.80;;;27.10;46.00;;;;;;7374882;19;20405;-53
2022/05/18 09:02:57;;;;;;;3.03;2.73;;;27.30;45.30;;;;;;7372347;19;20388;-53
2022/05/18 09:05:38;;;;;;;6.77;2.90;;;27.70;44.80;;;;;;7375493;19;20478;-53
2022/05/18 09:08:13;;;;;;;3.20;2.40;;;28.00;44.00;;;;;;7367570;19;20736;-53
2022/05/18 09:10:55;;;;;;;5.83;2.87;;;28.30;43.50;;;;;;7378152;19;20387;-53
2022/05/18 09:13:25;;;;;;;2.90;2.50;;;28.60;42.30;;;;;;7376883;19;20380;-53
2022/05/18 09:16:04;;;;;;;3.10;2.80;;;28.60;41.90;;;;;;7373471;19;20380;-53
2022/05/18 09:18:44;;;;;;;3.23;2.90;;;28.70;42.00;;;;;;7371100;19;20405;-53
2022/05/18 09:21:38;;;;;;;2.50;2.30;;;28.70;40.50;;;;;;7373876;19;20406;-53
2022/05/18 09:24:25;;;;;;;4.20;2.50;;;28.80;41.20;;;;;;7371139;19;20439;-53
2022/05/18 09:27:25;;;;;;;3.97;2.70;;;29.20;40.70;;;;;;7375773;19;20376;-53
2022/05/18 09:30:05;;;;;;;3.00;2.63;;;29.60;39.90;;;;;;7373828;19;20411;-54
2022/05/18 09:32:58;;;;;;;5.10;2.93;;;30.20;40.00;;;;;;7374100;19;20419;-53
2022/05/18 09:35:41;;;;;;;2.80;2.60;;;30.60;38.50;;;;;;7370946;19;20926;-53
2022/05/18 09:38:20;;;;;;;2.90;1.97;;;30.40;37.20;;;;;;7372301;19;20469;-53
2022/05/18 09:40:53;;;;;;;3.00;2.47;;;30.40;37.10;;;;;;7372131;19;21072;-53
2022/05/18 09:43:31;;;;;;;6.33;2.50;;;30.90;37.30;;;;;;7367929;19;20417;-53
2022/05/18 09:46:01;;;;;;;4.03;2.33;;;31.50;41.30;;;;;;7376541;19;20410;-53
2022/05/18 09:48:40;;;;;;;3.33;2.50;;;32.20;45.30;;;;;;7370618;19;20998;-53
2022/05/18 09:51:11;;;;;;;5.50;2.40;;;32.50;44.30;;;;;;7374688;19;20783;-53
2022/05/18 09:53:45;;;;;;;2.97;2.40;;;32.10;43.50;;;;;;7372262;19;20384;-53
2022/05/18 09:56:22;;;;;;;3.00;2.30;;;32.60;42.00;;;;;;7374558;19;20376;-54
2022/05/18 09:58:53;;;;;;;5.67;2.40;;;33.20;39.40;;;;;;7370003;19;20375;-54
2022/05/18 10:09:45;;;;;;;9.30;3.27;;;35.00;29.20;;;;;;7369876;19;20392;-53
2022/05/18 10:12:26;;;;;;;2.43;2.23;;;34.40;29.50;;;;;;7376526;19;20391;-54
2022/05/18 10:15:03;;;;;;;3.30;2.43;;;35.40;29.10;;;;;;7370419;19;20878;-54
2022/05/18 10:17:34;;;;;;;2.50;2.27;;;36.90;28.00;;;;;;7372749;19;20380;-54
2022/05/18 10:20:11;;;;;;;2.37;2.10;;;37.50;26.50;;;;;;7368260;19;20384;-53
2022/05/18 10:22:44;;;;;;;2.00;1.80;;;37.60;25.10;;;;;;7372391;19;20978;-53
2022/05/18 10:25:30;;;;;;;2.40;1.70;;;38.00;24.50;;;;;;7372337;19;20387;-53
2022/05/18 10:28:05;;;;;;;2.83;1.93;;;;;;;;;;7371647;19;20379;-53
2022/05/18 10:30:37;;;;;;;4.93;2.00;;;36.50;25.20;;;;;;7376581;19;20479;-53
2022/05/18 10:33:10;;;;;;;2.53;2.03;;;36.20;26.60;;;;;;7368917;19;20428;-53
2022/05/18 10:35:50;;;;;;;1.90;1.63;;;36.60;26.50;;;;;;7373430;19;20371;-54
2022/05/18 10:38:25;;;;;;;1.57;1.47;;;37.00;26.10;;;;;;7364532;19;20376;-54
2022/05/18 10:41:15;;;;;;;2.80;1.77;;;38.30;25.60;;;;;;7372082;19;20395;-53
2022/05/18 10:44:01;;;;;;;2.60;2.30;;;37.30;25.20;;;;;;7376136;19;20922;-53
2022/05/18 10:46:36;;;;;;;3.27;2.47;;;37.30;25.10;;;;;;7370261;19;20404;-53
2022/05/18 10:49:13;;;;;;;2.77;2.10;;;37.30;25.20;;;;;;7373435;19;21201;-53
2022/05/18 10:51:47;;;;;;;2.10;1.40;;;36.10;25.40;;;;;;7377528;19;20437;-53
2022/05/18 10:54:24;;;;;;;2.43;1.90;;;35.80;24.20;;;;;;7374333;19;20383;-53
2022/05/18 10:57:15;;;;;;;2.10;1.40;;;35.30;26.00;;;;;;7376611;19;20408;-53
2022/05/18 10:59:56;;;;;;;3.57;1.70;;;36.60;25.40;;;;;;7370820;19;20984;-54
2022/05/18 11:02:39;;;;;;;2.43;1.80;;;36.10;26.40;;;;;;7372499;19;20964;-54
2022/05/18 11:05:20;;;;;;;3.40;1.80;;;36.60;25.60;;;;;;7377857;19;20387;-53
2022/05/18 11:07:53;;;;;;;3.30;2.13;;;37.70;25.00;;;;;;7375189;19;20946;-53
2022/05/18 11:10:40;;;;;;;4.23;1.63;;;37.80;25.10;;;;;;7375526;19;20413;-54
2022/05/18 11:13:22;;;;;;;3.70;2.37;;;38.10;25.00;;;;;;7368230;19;20404;-54
2022/05/18 11:16:01;;;;;;;2.53;1.97;;;38.80;24.40;;;;;;7375302;19;20411;-53
2022/05/18 11:18:43;;;;;;;2.10;1.90;;;38.30;24.90;;;;;;7368757;19;20880;-54
2022/05/18 11:21:25;;;;;;;3.30;2.40;;;37.90;24.90;;;;;;7373726;19;20442;-53
2022/05/18 11:24:08;;;;;;;3.07;2.37;;;38.30;24.70;;;;;;7371936;19;20368;-53
2022/05/18 11:26:46;;;;;;;2.37;2.00;;;37.90;24.20;;;;;;7376350;19;20645;-54
2022/05/18 11:29:35;;;;;;;3.00;2.40;;;37.30;25.30;;;;;;7375715;19;20843;-53
2022/05/18 11:32:30;;;;;;;2.13;2.00;;;37.10;25.60;;;;;;7378822;19;20408;-54
2022/05/18 11:35:17;;;;;;;4.03;2.10;;;37.90;25.00;;;;;;7375838;19;21326;-54
2022/05/18 11:38:00;;;;;;;2.47;1.67;;;38.40;24.40;;;;;;7375724;19;20383;-54
2022/05/18 11:40:45;;;;;;;2.27;1.70;;;37.50;24.60;;;;;;7374405;19;20419;-53
2022/05/18 11:43:33;;;;;;;3.47;2.10;;;37.50;25.40;;;;;;7378217;19;20417;-54
2022/05/18 11:46:31;;;;;;;3.87;2.27;;;37.50;25.70;;;;;;7378601;19;20368;-53
2022/05/18 11:49:09;;;;;;;2.13;1.93;;;37.70;25.50;;;;;;7351553;19;21064;-53
2022/05/18 11:51:44;;;;;;;3.83;2.00;;;36.10;26.30;;;;;;7360292;19;20380;-53
2022/05/18 11:54:30;;;;;;;1.90;1.70;;;36.60;25.90;;;;;;7362671;19;21057;-54
2022/05/18 11:57:06;;;;;;;3.10;2.37;;;37.30;25.00;;;;;;7374206;19;20372;-53
2022/05/18 12:00:03;;;;;;;3.63;2.20;;;36.90;25.30;;;;;;7377752;19;20372;-53
2022/05/18 12:03:19;;;;;;;3.13;2.10;;;36.70;25.50;;;;;;7367881;19;20420;-53
2022/05/18 12:06:11;;;;;;;2.13;1.93;;;36.90;25.50;;;;;;7373481;19;20380;-53
2022/05/18 12:08:53;;;;;;;2.47;2.20;;;35.40;26.30;;;;;;7372667;19;20936;-53
2022/05/18 12:11:32;;;;;;;3.43;2.17;;;35.80;27.50;;;;;;7373569;19;20373;-53
2022/05/18 12:14:15;;;;;;;2.93;2.20;;;36.10;26.60;;;;;;7371721;19;20375;-54
2022/05/18 12:16:54;;;;;;;2.70;2.20;;;36.80;26.30;;;;;;7364995;19;20404;-54
2022/05/18 12:19:31;;;;;;;4.17;1.83;;;37.50;25.50;;;;;;7373661;19;20375;-54
2022/05/18 12:22:05;;;;;;;4.50;2.40;;;36.80;26.20;;;;;;7368186;19;20763;-54
2022/05/18 12:24:40;;;;;;;3.07;1.90;;;37.50;25.80;;;;;;7368073;19;20380;-55
2022/05/18 12:27:15;;;;;;;2.47;2.20;;;38.20;25.30;;;;;;7376838;19;20918;-54
2022/05/18 12:29:47;;;;;;;2.20;2.00;;;37.40;25.20;;;;;;7375117;19;20445;-54
2022/05/18 12:32:20;;;;;;;4.30;1.87;;;37.50;25.10;;;;;;7377576;19;20406;-54
2022/05/18 12:35:08;;;;;;;4.60;2.00;;;36.60;25.70;;;;;;7370603;19;20388;-54
2022/05/18 12:37:49;;;;;;;2.83;2.33;;;36.40;26.40;;;;;;7370336;19;20796;-54
2022/05/18 12:40:36;;;;;;;2.27;1.93;;;35.90;26.30;;;;;;7372290;19;20413;-54
2022/05/18 12:43:17;;;;;;;4.70;2.20;;;36.20;26.70;;;;;;7374059;19;20364;-54
2022/05/18 12:45:50;;;;;;;2.40;1.97;;;36.10;26.50;;;;;;7375574;19;20375;-54
2022/05/18 12:48:33;;;;;;;6.33;2.90;;;35.30;26.40;;;;;;7319839;19;20431;-54
2022/05/18 12:51:10;;;;;;;2.20;1.97;;;35.20;27.40;;;;;;7344158;19;20393;-53
2022/05/18 12:53:58;;;;;;;2.43;2.03;;;36.00;26.40;;;;;;7357526;19;20876;-53
2022/05/18 12:56:49;;;;;;;2.47;2.27;;;36.50;26.80;;;;;;7367190;19;21058;-53
2022/05/18 12:59:21;;;;;;;4.20;1.90;;;36.10;26.60;;;;;;7343763;19;20372;-53
2022/05/18 13:02:01;;;;;;;3.83;2.30;;;36.90;25.80;;;;;;7342748;19;20383;-53
2022/05/18 13:04:43;;;;;;;2.90;1.93;;;36.70;25.90;;;;;;7314158;19;20384;-54
2022/05/18 13:07:30;;;;;;;4.17;2.07;;;36.50;26.30;;;;;;7351115;19;20891;-54
2022/05/18 13:10:17;;;;;;;3.10;2.10;;;36.40;26.30;;;;;;7333845;19;20380;-54
2022/05/18 13:12:58;;;;;;;3.10;1.80;;;36.30;26.20;;;;;;7334545;19;20368;-53
2022/05/18 13:15:52;;;;;;;3.00;1.80;;;35.50;27.30;;;;;;7359397;19;20953;-53
2022/05/18 13:18:31;;;;;;;3.50;2.43;;;35.40;27.30;;;;;;7333552;19;20987;-53
2022/05/18 13:21:19;;;;;;;2.60;2.23;;;35.60;27.30;;;;;;7346105;19;20371;-53
2022/05/18 13:24:04;;;;;;;3.73;2.03;;;35.60;26.90;;;;;;7340046;19;20737;-54
2022/05/18 13:26:43;;;;;;;3.77;2.50;;;35.50;26.90;;;;;;7358802;19;20774;-53
2022/05/18 13:29:17;;;;;;;2.50;2.00;;;34.70;27.40;;;;;;7342556;19;20921;-53
2022/05/18 13:31:51;;;;;;;2.63;2.20;;;34.20;27.60;;;;;;7362335;19;20384;-55
2022/05/18 13:34:24;;;;;;;28.70;5.37;;;34.20;28.90;;;;;;7357224;19;20388;-53
2022/05/18 13:36:56;;;;;;;7.37;3.27;;;33.80;28.50;;;;;;7352599;19;20383;-54
2022/05/18 13:39:34;;;;;;;4.77;2.17;;;33.10;29.50;;;;;;7360808;19;20399;-53
2022/05/18 13:42:11;;;;;;;3.23;2.10;;;32.40;29.90;;;;;;7353917;19;20379;-54
2022/05/18 13:44:42;;;;;;;9.60;2.80;;;31.60;30.70;;;;;;7368651;19;20411;-54